Time;durP1;ratioP1;P1;durP2;ratioP2;P2;SDS_P1;SDS_P2;PMS_P1;PMS_P2;Temp;Humidity;BMP_temperature;BMP_pressure;BME280_temperature;BME280_humidity;BME280_pressure;Samples;Min_cycle;Max_cycle;Signal;HPM_P1;HPM_P2
2024/04/21 00:01:18;;;;;;;;;;;;;;;5.49;100.00;102457.25;5465690;26;20001;-81
2024/04/21 00:03:44;;;;;;;;;;;;;;;5.48;100.00;102453.72;5399391;26;19936;-84
2024/04/21 00:06:09;;;;;;;;;;;;;;;5.42;100.00;102451.44;5393087;26;20432;-83
2024/04/21 00:08:35;;;;;;;;;;;;;;;5.40;100.00;102449.81;5452542;26;19929;-83
2024/04/21 00:11:00;;;;;;;;;;;;;;;5.40;100.00;102440.03;5392954;26;19939;-83
2024/04/21 00:13:26;;;;;;;;;;;;;;;5.45;100.00;102445.03;5422347;26;19929;-82
2024/04/21 00:15:51;;;;;;;;;;;;;;;5.47;100.00;102441.31;5422560;26;19928;-82
2024/04/21 00:18:16;;;;;;;;;;;;;;;5.47;100.00;102445.81;5452731;26;19935;-84
2024/04/21 00:20:42;;;;;;;;;;;;;;;5.46;100.00;102442.28;5422652;26;19933;-83
2024/04/21 00:23:08;;;;;;;;;;;;;;;5.47;100.00;102440.47;5422490;26;19929;-82
2024/04/21 00:25:34;;;;;;;;;;;;;;;5.46;100.00;102442.28;5393033;26;19928;-82
2024/04/21 00:27:59;;;;;;;;;;;;;;;5.54;100.00;102440.94;5452335;26;19936;-82
2024/04/21 00:30:25;;;;;;;;;;;;;;;5.62;100.00;102439.47;5422131;26;19929;-83
2024/04/21 00:32:50;;;;;;;;;;;;;;;5.58;100.00;102445.94;5392577;26;19935;-83
2024/04/21 00:35:16;;;;;;;;;;;;;;;5.40;100.00;102442.69;5452153;26;19929;-82
2024/04/21 00:37:41;;;;;;;;;;;;;;;5.19;100.00;102436.94;5392477;26;19933;-83
2024/04/21 00:40:07;;;;;;;;;;;;;;;5.03;100.00;102428.25;5392469;26;19932;-83
2024/04/21 00:42:32;;;;;;;;;;;;;;;4.92;100.00;102436.03;5422174;26;19929;-83
2024/04/21 00:44:58;;;;;;;;;;;;;;;4.86;100.00;102447.97;5421978;26;19936;-82
2024/04/21 00:47:23;;;;;;;;;;;;;;;4.81;100.00;102440.25;5451915;26;19961;-83
2024/04/21 00:49:49;;;;;;;;;;;;;;;4.89;100.00;102449.56;5421959;26;20267;-83
2024/04/21 00:52:14;;;;;;;;;;;;;;;5.01;100.00;102449.66;5452070;26;19997;-83
2024/04/21 00:54:39;;;;;;;;;;;;;;;5.09;100.00;102438.50;5392184;26;19997;-83
2024/04/21 00:57:05;;;;;;;;;;;;;;;5.03;100.00;102442.41;5421639;26;19936;-83
2024/04/21 00:59:30;;;;;;;;;;;;;;;5.00;100.00;102447.94;5421615;26;19929;-83
2024/04/21 01:01:56;;;;;;;;;;;;;;;5.04;100.00;102440.59;5451692;26;19997;-83
2024/04/21 01:04:22;;;;;;;;;;;;;;;5.05;100.00;102442.31;5392043;26;19941;-82
2024/04/21 01:06:47;;;;;;;;;;;;;;;5.01;100.00;102439.00;5421516;26;19933;-83
2024/04/21 01:09:13;;;;;;;;;;;;;;;4.94;100.00;102436.81;5453917;26;20359;-83
2024/04/21 01:11:48;;;;;;;;;;;;;;;4.81;100.00;102437.59;5421693;26;19932;-82
2024/04/21 01:14:13;;;;;;;;;;;;;;;4.75;100.00;102429.13;5421512;26;19961;-83
2024/04/21 01:16:39;;;;;;;;;;;;;;;4.77;100.00;102437.91;5453329;26;19928;-83
2024/04/21 01:19:04;;;;;;;;;;;;;;;4.81;100.00;102434.91;5451713;26;19997;-82
2024/04/21 01:21:29;;;;;;;;;;;;;;;4.82;100.00;102436.66;5421399;26;19929;-82
2024/04/21 01:23:55;;;;;;;;;;;;;;;5.04;100.00;102440.59;5421337;26;20396;-83
2024/04/21 01:26:21;;;;;;;;;;;;;;;5.09;100.00;102442.97;5424627;26;19929;-83
2024/04/21 01:28:47;;;;;;;;;;;;;;;5.00;100.00;102434.63;5425238;26;19935;-84
2024/04/21 01:31:12;;;;;;;;;;;;;;;4.80;100.00;102435.88;5395234;26;19929;-82
2024/04/21 01:33:38;;;;;;;;;;;;;;;4.67;100.00;102444.75;5455291;26;19929;-82
2024/04/21 01:36:03;;;;;;;;;;;;;;;4.52;100.00;102446.53;5424809;26;19928;-82
2024/04/21 01:38:29;;;;;;;;;;;;;;;4.43;100.00;102455.13;5395442;26;19929;-82
2024/04/21 01:40:55;;;;;;;;;;;;;;;4.37;100.00;102445.72;5454791;26;20274;-82
2024/04/21 01:43:20;;;;;;;;;;;;;;;4.24;100.00;102450.91;5424716;26;19928;-82
2024/04/21 01:45:46;;;;;;;;;;;;;;;4.11;100.00;102448.13;5424772;26;19952;-82
2024/04/21 01:48:11;;;;;;;;;;;;;;;4.20;100.00;102444.06;5424781;26;20067;-83
2024/04/21 01:50:37;;;;;;;;;;;;;;;4.26;100.00;102443.69;5454591;26;19932;-83
2024/04/21 01:53:02;;;;;;;;;;;;;;;4.14;100.00;102431.97;5424552;26;19928;-84
2024/04/21 01:55:28;;;;;;;;;;;;;;;4.04;100.00;102438.78;5454605;26;19928;-84
2024/04/21 01:57:54;;;;;;;;;;;;;;;4.17;100.00;102442.44;5424408;26;19936;-83
2024/04/21 02:00:19;;;;;;;;;;;;;;;4.31;100.00;102438.06;5395236;26;19935;-82
2024/04/21 02:02:45;;;;;;;;;;;;;;;4.32;100.00;102443.31;5424647;26;20432;-83
2024/04/21 02:05:10;;;;;;;;;;;;;;;4.21;100.00;102435.13;5424928;26;19935;-82
2024/04/21 02:07:36;;;;;;;;;;;;;;;4.10;100.00;102434.91;5424450;26;19935;-83
2024/04/21 02:10:02;;;;;;;;;;;;;;;3.93;100.00;102441.25;5424634;26;19936;-82
2024/04/21 02:12:27;;;;;;;;;;;;;;;3.70;100.00;102440.78;5454576;26;19935;-82
2024/04/21 02:14:53;;;;;;;;;;;;;;;3.55;100.00;102438.16;5424369;26;20288;-83
2024/04/21 02:17:18;;;;;;;;;;;;;;;3.43;100.00;102429.97;5424701;26;19951;-82
2024/04/21 02:19:44;;;;;;;;;;;;;;;3.33;100.00;102434.09;5402174;26;19928;-82
2024/04/21 02:22:09;;;;;;;;;;;;;;;3.29;100.00;102436.06;5459896;26;19932;-82
2024/04/21 02:24:39;;;;;;;;;;;;;;;3.26;100.00;102440.72;5424256;26;19928;-82
2024/04/21 02:27:04;;;;;;;;;;;;;;;3.19;100.00;102448.16;5424226;26;19929;-82
2024/04/21 02:29:30;;;;;;;;;;;;;;;3.15;100.00;102435.13;5394536;26;19943;-82
2024/04/21 02:31:55;;;;;;;;;;;;;;;3.11;100.00;102441.56;5454206;26;19936;-82
2024/04/21 02:34:21;;;;;;;;;;;;;;;3.08;100.00;102440.81;5394321;26;19935;-82
2024/04/21 02:36:46;;;;;;;;;;;;;;;3.11;100.00;102441.56;5456301;26;19997;-82
2024/04/21 02:39:12;;;;;;;;;;;;;;;3.18;100.00;102440.31;5424131;26;20244;-82
2024/04/21 02:41:38;;;;;;;;;;;;;;;3.13;100.00;102437.03;5423925;26;20248;-83
2024/04/21 02:44:03;;;;;;;;;;;;;;;3.11;100.00;102438.91;5453789;26;19928;-82
2024/04/21 02:46:29;;;;;;;;;;;;;;;3.05;100.00;102443.63;5394239;26;19936;-82
2024/04/21 02:48:54;;;;;;;;;;;;;;;3.11;100.00;102444.25;5423725;26;19997;-82
2024/04/21 02:51:19;;;;;;;;;;;;;;;3.09;100.00;102445.16;5424150;26;19928;-82
2024/04/21 02:53:45;;;;;;;;;;;;;;;3.05;100.00;102448.09;5394092;26;19936;-82
2024/04/21 02:56:10;;;;;;;;;;;;;;;2.97;100.00;102443.22;5423619;26;19928;-82
2024/04/21 02:58:36;;;;;;;;;;;;;;;2.95;100.00;102442.44;5423810;26;19928;-84
2024/04/21 03:01:05;;;;;;;;;;;;;;;2.96;100.00;102451.25;5423643;26;19936;-83
2024/04/21 03:03:30;;;;;;;;;;;;;;;2.97;100.00;102443.22;5423649;26;19956;-82
2024/04/21 03:05:56;;;;;;;;;;;;;;;2.88;100.00;102441.03;5423812;26;19935;-82
2024/04/21 03:08:21;;;;;;;;;;;;;;;2.74;100.00;102438.31;5394121;26;20478;-83
2024/04/21 03:10:47;;;;;;;;;;;;;;;2.60;100.00;102442.56;5393801;26;19929;-82
2024/04/21 03:13:12;;;;;;;;;;;;;;;2.58;100.00;102441.78;5423473;26;19943;-82
2024/04/21 03:15:38;;;;;;;;;;;;;;;2.64;100.00;102444.09;5423379;26;19928;-82
2024/04/21 03:18:04;;;;;;;;;;;;;;;2.61;100.00;102444.25;5393783;26;19935;-83
2024/04/21 03:20:29;;;;;;;;;;;;;;;2.62;100.00;102443.34;5423415;26;19929;-82
2024/04/21 03:22:54;;;;;;;;;;;;;;;2.68;100.00;102444.81;5453389;26;19997;-82
2024/04/21 03:25:20;;;;;;;;;;;;;;;2.72;100.00;102448.13;5455017;26;19928;-82
2024/04/21 03:27:45;;;;;;;;;;;;;;;2.77;100.00;102454.91;5393712;26;19935;-83
2024/04/21 03:30:11;;;;;;;;;;;;;;;2.76;100.00;102449.69;5393588;26;19936;-82
2024/04/21 03:32:36;;;;;;;;;;;;;;;2.63;100.00;102455.66;5393601;26;20336;-82
2024/04/21 03:35:02;;;;;;;;;;;;;;;2.49;100.00;102454.69;5453178;26;19940;-82
2024/04/21 03:37:30;;;;;;;;;;;;;;;2.29;100.00;102450.44;5393581;26;19928;-82
2024/04/21 03:39:56;;;;;;;;;;;;;;;2.30;100.00;102449.50;5394061;26;19990;-82
2024/04/21 03:42:21;;;;;;;;;;;;;;;2.30;100.00;102454.81;5423431;26;20287;-82
2024/04/21 03:44:47;;;;;;;;;;;;;;;2.28;100.00;102460.22;5453379;26;19928;-82
2024/04/21 03:47:13;;;;;;;;;;;;;;;2.14;100.00;102466.25;5422550;26;19936;-82
2024/04/21 03:49:39;;;;;;;;;;;;;;;2.04;100.00;102458.81;5422832;26;19932;-82
2024/04/21 03:52:04;;;;;;;;;;;;;;;2.13;100.00;102459.19;5453034;26;19929;-82
2024/04/21 03:54:30;;;;;;;;;;;;;;;2.23;100.00;102467.56;5422812;26;20290;-82
2024/04/21 03:56:55;;;;;;;;;;;;;;;2.22;100.00;102463.16;5422869;26;19932;-83
2024/04/21 03:59:20;;;;;;;;;;;;;;;2.18;100.00;102465.13;5423071;26;19935;-82
2024/04/21 04:01:46;;;;;;;;;;;;;;;2.27;100.00;102461.13;5393063;26;19929;-82
2024/04/21 04:04:11;;;;;;;;;;;;;;;2.32;100.00;102468.84;5393394;26;19933;-82
2024/04/21 04:06:37;;;;;;;;;;;;;;;2.28;100.00;102464.66;5452988;26;20343;-82
2024/04/21 04:09:02;;;;;;;;;;;;;;;2.32;100.00;102463.53;5393130;26;19965;-82
2024/04/21 04:11:28;;;;;;;;;;;;;;;2.24;100.00;102473.72;5423417;26;20435;-81
2024/04/21 04:13:53;;;;;;;;;;;;;;;2.09;100.00;102467.38;5422917;26;19929;-82
2024/04/21 04:16:19;;;;;;;;;;;;;;;2.06;100.00;102470.19;5422546;26;20449;-82
2024/04/21 04:18:44;;;;;;;;;;;;;;;1.98;100.00;102466.16;5393046;26;19928;-82
2024/04/21 04:21:10;;;;;;;;;;;;;;;1.85;100.00;102465.03;5422747;26;20018;-82
2024/04/21 04:23:36;;;;;;;;;;;;;;;1.74;100.00;102467.38;5422751;26;19936;-82
2024/04/21 04:26:01;;;;;;;;;;;;;;;1.64;100.00;102467.00;5422638;26;19929;-82
2024/04/21 04:28:27;;;;;;;;;;;;;;;1.60;100.00;102469.88;5422763;26;19928;-81
2024/04/21 04:30:52;;;;;;;;;;;;;;;1.65;100.00;102460.75;5392655;26;19929;-83
2024/04/21 04:33:18;;;;;;;;;;;;;;;1.74;100.00;102470.03;5452473;26;20248;-82
2024/04/21 04:35:44;;;;;;;;;;;;;;;1.76;100.00;102471.69;5422285;26;19935;-82
2024/04/21 04:38:09;;;;;;;;;;;;;;;1.71;100.00;102472.84;5394757;26;19935;-82
2024/04/21 04:40:36;;;;;;;;;;;;;;;1.58;100.00;102477.03;5399318;26;19934;-80
2024/04/21 04:43:01;;;;;;;;;;;;;;;1.57;100.00;102476.19;5396151;26;19956;-82
2024/04/21 04:45:27;;;;;;;;;;;;;;;1.69;100.00;102470.28;5452363;26;19929;-82
2024/04/21 04:47:52;;;;;;;;;;;;;;;1.76;100.00;102474.31;5422363;26;20355;-81
2024/04/21 04:50:18;;;;;;;;;;;;;;;1.74;100.00;102473.53;5422509;26;19928;-82
2024/04/21 04:52:43;;;;;;;;;;;;;;;1.66;100.00;102475.72;5422735;26;19929;-82
2024/04/21 04:55:08;;;;;;;;;;;;;;;1.56;100.00;102474.44;5422313;26;20019;-81
2024/04/21 04:57:34;;;;;;;;;;;;;;;1.56;100.00;102476.25;5452035;26;19935;-82
2024/04/21 05:00:00;;;;;;;;;;;;;;;1.49;100.00;102468.59;5422944;26;20349;-82
2024/04/21 05:02:25;;;;;;;;;;;;;;;1.42;100.00;102475.13;5396246;26;19936;-82
2024/04/21 05:04:51;;;;;;;;;;;;;;;1.35;100.00;102475.50;5425813;26;20363;-81
2024/04/21 05:07:16;;;;;;;;;;;;;;;1.28;100.00;102475.81;5425604;26;19935;-82
2024/04/21 05:09:42;;;;;;;;;;;;;;;1.22;100.00;102476.09;5395807;26;19928;-82
2024/04/21 05:12:07;;;;;;;;;;;;;;;1.24;100.00;102468.91;5425849;26;19932;-82
2024/04/21 05:14:33;;;;;;;;;;;;;;;1.36;100.00;102480.72;5455506;26;19928;-82
2024/04/21 05:16:58;;;;;;;;;;;;;;;1.41;100.00;102480.53;5457257;26;20262;-82
2024/04/21 05:19:23;;;;;;;;;;;;;;;1.35;100.00;102481.69;5425823;26;19932;-83
2024/04/21 05:21:49;;;;;;;;;;;;;;;1.26;100.00;102482.09;5455189;26;20266;-81
2024/04/21 05:24:14;;;;;;;;;;;;;;;1.28;100.00;102481.09;5395755;26;19961;-82
2024/04/21 05:26:40;;;;;;;;;;;;;;;1.38;100.00;102480.69;5396320;26;19929;-82
2024/04/21 05:29:05;;;;;;;;;;;;;;;1.45;100.00;102493.53;5425381;26;20347;-82
2024/04/21 05:31:31;;;;;;;;;;;;;;;1.47;100.00;102496.13;5455274;26;19935;-82
2024/04/21 05:33:56;;;;;;;;;;;;;;;1.40;100.00;102492.88;5425313;26;19935;-82
2024/04/21 05:36:22;;;;;;;;;;;;;;;1.35;100.00;102496.69;5425242;26;19929;-83
2024/04/21 05:38:48;;;;;;;;;;;;;;;1.34;100.00;102500.28;5395328;26;19928;-82
2024/04/21 05:41:14;;;;;;;;;;;;;;;1.46;100.00;102500.56;5395823;26;19929;-82
2024/04/21 05:43:40;;;;;;;;;;;;;;;1.83;100.00;102503.22;5395530;26;19996;-82
2024/04/21 05:46:05;;;;;;;;;;;;;;;2.04;100.00;102510.09;5455010;26;19997;-82
2024/04/21 05:48:30;;;;;;;;;;;;;;;1.97;100.00;102508.69;5395328;26;20263;-82
2024/04/21 05:50:56;;;;;;;;;;;;;;;1.96;100.00;102509.63;5454891;26;19935;-82
2024/04/21 05:53:21;;;;;;;;;;;;;;;1.94;100.00;102517.66;5425161;26;19998;-82
2024/04/21 05:55:47;;;;;;;;;;;;;;;1.96;100.00;102517.59;5424877;26;20001;-82
2024/04/21 05:58:13;;;;;;;;;;;;;;;2.00;100.00;102523.59;5395044;26;19928;-82
2024/04/21 06:00:38;;;;;;;;;;;;;;;2.05;100.00;102527.72;5395086;26;19928;-83
2024/04/21 06:03:04;;;;;;;;;;;;;;;2.20;100.00;102528.75;5395052;26;19928;-82
2024/04/21 06:05:29;;;;;;;;;;;;;;;2.42;100.00;102536.47;5455090;26;20296;-82
2024/04/21 06:07:55;;;;;;;;;;;;;;;2.47;100.00;102531.78;5424580;26;19939;-82
2024/04/21 06:10:20;;;;;;;;;;;;;;;2.54;100.00;102538.50;5424396;26;19932;-83
2024/04/21 06:12:47;;;;;;;;;;;;;;;2.60;100.00;102540.81;5394752;26;19928;-83
2024/04/21 06:15:14;;;;;;;;;;;;;;;2.82;100.00;102540.53;5395406;26;19928;-82
2024/04/21 06:17:39;;;;;;;;;;;;;;;3.02;100.00;102533.31;5424423;26;19928;-82
2024/04/21 06:20:05;;;;;;;;;;;;;;;3.37;100.00;102535.81;5424686;26;19929;-82
2024/04/21 06:22:31;;;;;;;;;;;;;;;3.96;100.00;102539.53;5424381;26;19936;-82
2024/04/21 06:24:56;;;;;;;;;;;;;;;4.39;100.00;102532.56;5424785;26;20032;-82
2024/04/21 06:27:22;;;;;;;;;;;;;;;4.85;100.00;102532.41;5455049;26;19928;-82
2024/04/21 06:29:47;;;;;;;;;;;;;;;4.85;100.00;102543.06;5454755;26;20248;-84
2024/04/21 06:32:13;;;;;;;;;;;;;;;5.27;100.00;102532.47;5394644;26;19944;-84
2024/04/21 06:34:38;;;;;;;;;;;;;;;5.42;100.00;102543.94;5394494;26;19936;-82
2024/04/21 06:37:03;;;;;;;;;;;;;;;5.54;100.00;102543.19;5424249;26;19929;-83
2024/04/21 06:39:29;;;;;;;;;;;;;;;5.40;100.00;102543.19;5394500;26;20362;-83
2024/04/21 06:41:55;;;;;;;;;;;;;;;5.75;100.00;102540.94;5455618;26;19935;-83
2024/04/21 06:44:21;;;;;;;;;;;;;;;;;;5424118;26;19929;-83
2024/04/21 06:46:46;;;;;;;;;;;;;;;6.78;100.00;102540.19;5455509;26;19928;-83
2024/04/21 06:49:12;;;;;;;;;;;;;;;6.93;100.00;102554.31;5423801;26;20048;-83
2024/04/21 06:51:37;;;;;;;;;;;;;;;7.00;100.00;102555.56;5423617;26;20374;-83
2024/04/21 06:54:03;;;;;;;;;;;;;;;7.37;100.00;102546.75;5423665;26;19935;-84
2024/04/21 06:56:28;;;;;;;;;;;;;;;8.03;100.00;102548.06;5424010;26;19935;-84
2024/04/21 06:58:53;;;;;;;;;;;;;;;8.85;100.00;102550.75;5423904;26;19935;-84
2024/04/21 07:01:19;;;;;;;;;;;;;;;8.87;100.00;102546.13;5401104;26;19936;-83
2024/04/21 07:03:44;;;;;;;;;;;;;;;8.92;100.00;102551.16;5437675;26;19932;-83
2024/04/21 07:06:10;;;;;;;;;;;;;;;9.03;100.00;102548.47;5426435;26;19934;-84
2024/04/21 07:08:35;;;;;;;;;;;;;;;9.80;100.00;102550.28;5423689;26;19940;-84
2024/04/21 07:11:01;;;;;;;;;;;;;;;10.68;100.00;102547.31;5453960;26;19935;-84
2024/04/21 07:13:27;;;;;;;;;;;;;;;11.33;100.00;102550.59;5423870;26;20336;-84
2024/04/21 07:15:52;;;;;;;;;;;;;;;11.90;100.00;102558.09;5393654;26;19928;-85
2024/04/21 07:18:18;;;;;;;;;;;;;;;12.39;100.00;102554.41;5394033;26;19928;-86
2024/04/21 07:20:43;;;;;;;;;;;;;;;12.74;100.00;102555.63;5453537;26;19928;-85
2024/04/21 07:23:09;;;;;;;;;;;;;;;13.05;100.00;102558.94;5422196;26;20382;-84
2024/04/21 07:25:34;;;;;;;;;;;;;;;13.25;100.00;102553.44;5423296;26;19937;-85
2024/04/21 07:28:00;;;;;;;;;;;;;;;13.55;100.00;102555.03;5393586;26;19936;-84
2024/04/21 07:30:25;;;;;;;;;;;;;;;13.95;100.00;102557.31;5393673;26;19928;-85
2024/04/21 07:32:51;;;;;;;;;;;;;;;14.34;100.00;102558.81;5453440;26;19928;-84
2024/04/21 07:35:17;;;;;;;;;;;;;;;14.37;100.00;102556.69;5423209;26;20363;-85
2024/04/21 07:37:42;;;;;;;;;;;;;;;14.77;100.00;102563.44;5423264;26;19936;-85
2024/04/21 07:40:08;;;;;;;;;;;;;;;14.93;100.00;102557.25;5423115;26;19929;-85
2024/04/21 07:42:33;;;;;;;;;;;;;;;15.14;100.00;102567.69;5393722;26;19929;-84
2024/04/21 07:44:59;;;;;;;;;;;;;;;15.61;100.00;102578.03;5423335;26;19943;-82
2024/04/21 07:47:24;;;;;;;;;;;;;;;15.85;100.00;102566.47;5453219;26;19935;-85
2024/04/21 07:49:50;;;;;;;;;;;;;;;16.02;99.92;102570.03;5423685;26;19978;-82
2024/04/21 07:52:16;;;;;;;;;;;;;;;16.49;100.00;102572.09;5423656;26;19932;-82
2024/04/21 07:54:42;;;;;;;;;;;;;;;17.11;99.61;102568.75;5423417;26;19929;-85
2024/04/21 07:57:07;;;;;;;;;;;;;;;17.65;92.24;102573.44;5393731;26;19931;-82
2024/04/21 07:59:33;;;;;;;;;;;;;;;17.62;85.23;102574.66;5422886;26;19935;-84
2024/04/21 08:01:58;;;;;;;;;;;;;;;17.97;85.51;102573.28;5393975;26;19935;-83
2024/04/21 08:04:24;;;;;;;;;;;;;;;18.39;82.68;102571.09;5423499;26;19940;-83
2024/04/21 08:06:49;;;;;;;;;;;;;;;18.73;75.78;102567.03;5393932;26;19929;-84
2024/04/21 08:09:15;;;;;;;;;;;;;;;18.79;74.96;102575.34;5422951;26;19964;-84
2024/04/21 08:11:40;;;;;;;;;;;;;;;18.80;70.42;102573.47;5393234;26;19928;-84
2024/04/21 08:14:06;;;;;;;;;;;;;;;18.86;71.04;102568.09;5422864;26;19929;-83
2024/04/21 08:16:33;;;;;;;;;;;;;;;18.78;68.52;102573.63;5453125;26;19997;-83
2024/04/21 08:18:58;;;;;;;;;;;;;;;18.75;70.60;102570.44;5393379;26;19939;-82
2024/04/21 08:21:24;;;;;;;;;;;;;;;18.96;70.45;102572.44;5423076;26;19928;-85
2024/04/21 08:23:49;;;;;;;;;;;;;;;19.26;69.55;102563.22;5423021;26;19929;-85
2024/04/21 08:26:15;;;;;;;;;;;;;;;19.38;68.64;102566.31;5422745;26;19965;-83
2024/04/21 08:28:41;;;;;;;;;;;;;;;19.72;68.35;102571.16;5452707;26;20228;-84
2024/04/21 08:31:06;;;;;;;;;;;;;;;19.83;66.31;102574.44;5392763;26;19929;-82
2024/04/21 08:33:32;;;;;;;;;;;;;;;19.81;63.47;102571.88;5422985;26;19932;-84
2024/04/21 08:35:58;;;;;;;;;;;;;;;19.75;64.94;102568.03;5426401;26;20363;-85
2024/04/21 08:38:23;;;;;;;;;;;;;;;19.94;63.14;102563.00;5455960;26;20060;-84
2024/04/21 08:40:50;;;;;;;;;;;;;;;19.94;62.22;102566.56;5425569;26;19944;-85
2024/04/21 08:43:17;;;;;;;;;;;;;;;19.74;62.53;102570.97;5425669;26;20056;-85
2024/04/21 08:45:43;;;;;;;;;;;;;;;19.72;62.71;102568.44;5455326;26;20382;-85
2024/04/21 08:48:08;;;;;;;;;;;;;;;20.15;64.14;102567.63;5455564;26;19940;-86
2024/04/21 08:50:35;;;;;;;;;;;;;;;20.54;62.26;102579.97;5455818;26;20291;-84
2024/04/21 08:53:00;;;;;;;;;;;;;;;20.80;61.11;102574.72;5431442;26;19969;-85
2024/04/21 08:55:26;;;;;;;;;;;;;;;21.01;59.53;102582.00;5417082;26;20258;-84
2024/04/21 08:57:52;;;;;;;;;;;;;;;21.31;59.96;102589.94;5397977;26;20324;-84
2024/04/21 09:00:17;;;;;;;;;;;;;;;21.55;57.51;102585.03;5426936;26;19974;-84
2024/04/21 09:02:43;;;;;;;;;;;;;;;21.57;55.94;102588.41;5426383;26;19935;-84
2024/04/21 09:05:08;;;;;;;;;;;;;;;21.15;56.68;102590.28;5425409;26;19928;-84
2024/04/21 09:07:36;;;;;;;;;;;;;;;20.86;57.29;102587.56;5425407;26;19928;-82
2024/04/21 09:10:02;;;;;;;;;;;;;;;20.91;57.16;102591.63;5425213;26;19929;-82
2024/04/21 09:12:28;;;;;;;;;;;;;;;20.83;56.51;102582.50;5425577;26;19929;-82
2024/04/21 09:14:53;;;;;;;;;;;;;;;20.81;55.80;102583.75;5425096;26;20288;-82
2024/04/21 09:17:19;;;;;;;;;;;;;;;21.27;56.65;102591.38;5425299;26;19934;-82
2024/04/21 09:19:45;;;;;;;;;;;;;;;21.60;54.01;102582.53;5424948;26;19940;-82
2024/04/21 09:22:10;;;;;;;;;;;;;;;21.67;53.12;102595.19;5425109;26;19929;-83
2024/04/21 09:24:36;;;;;;;;;;;;;;;20.89;52.16;102594.53;5455249;26;19935;-82
2024/04/21 09:27:02;;;;;;;;;;;;;;;20.67;51.03;102592.88;5464619;26;19937;-80
2024/04/21 09:29:27;;;;;;;;;;;;;;;20.62;54.49;102588.88;5471119;26;19929;-82
2024/04/21 09:31:53;;;;;;;;;;;;;;;21.16;54.20;102592.81;5436759;26;20416;-82
2024/04/21 09:34:18;;;;;;;;;;;;;;;-146.42;100.00;66673.91;5426549;26;19929;-83
2024/04/21 09:36:44;;;;;;;;;;;;;;;21.16;54.20;102592.81;5426116;26;19928;-82
2024/04/21 09:39:09;;;;;;;;;;;;;;;21.96;51.57;102587.66;5455835;26;19980;-83
2024/04/21 09:41:35;;;;;;;;;;;;;;;22.22;49.50;102595.13;5455536;26;19936;-82
2024/04/21 09:44:01;;;;;;;;;;;;;;;22.53;47.50;102590.94;5395946;26;19929;-82
2024/04/21 09:46:26;;;;;;;;;;;;;;;22.69;46.07;102590.50;5394840;26;19940;-82
2024/04/21 09:48:52;;;;;;;;;;;;;;;22.98;45.83;102596.63;5395469;26;19928;-83
2024/04/21 09:51:18;;;;;;;;;;;;;;;23.19;45.17;102590.88;5395352;26;19929;-82
2024/04/21 09:53:45;;;;;;;;;;;;;;;23.34;44.64;102595.22;5395268;26;19929;-82
2024/04/21 09:56:10;;;;;;;;;;;;;;;23.61;45.74;102594.09;5395377;26;19935;-82
2024/04/21 09:58:36;;;;;;;;;;;;;;;23.66;44.71;102593.44;5424596;26;19928;-82
2024/04/21 10:01:01;;;;;;;;;;;;;;;23.63;44.16;102593.84;5394994;26;19940;-82
2024/04/21 10:03:27;;;;;;;;;;;;;;;23.95;44.62;102597.53;5454807;26;20266;-82
2024/04/21 10:05:52;;;;;;;;;;;;;;;24.04;44.00;102584.38;5424694;26;20319;-83
2024/04/21 10:08:18;;;;;;;;;;;;;;;24.12;43.24;102593.16;5424537;26;19940;-84
2024/04/21 10:10:43;;;;;;;;;;;;;;;24.21;42.69;102595.66;5394932;26;19935;-84
2024/04/21 10:13:09;;;;;;;;;;;;;;;24.14;41.68;102598.47;5395359;26;19929;-83
2024/04/21 10:15:34;;;;;;;;;;;;;;;23.76;42.26;102588.31;5454654;26;19937;-83
2024/04/21 10:18:01;;;;;;;;;;;;;;;23.29;41.88;102589.53;5424060;26;19936;-82
2024/04/21 10:20:30;;;;;;;;;;;;;;;23.13;43.97;102586.25;5424826;26;19936;-83
2024/04/21 10:23:11;;;;;;;;;;;;;;;23.67;43.48;102582.22;5454088;26;19929;-82
2024/04/21 10:25:37;;;;;;;;;;;;;;;23.96;42.33;102588.22;5395105;26;19928;-83
2024/04/21 10:28:03;;;;;;;;;;;;;;;24.03;41.83;102585.44;5454506;26;19929;-82
2024/04/21 10:30:29;;;;;;;;;;;;;;;24.27;40.88;102584.63;5423926;26;19974;-82
2024/04/21 10:32:59;;;;;;;;;;;;;;;24.24;40.92;102578.72;5423965;26;19929;-82
2024/04/21 10:35:24;;;;;;;;;;;;;;;23.87;40.98;102575.81;5423889;26;19929;-83
2024/04/21 10:37:53;;;;;;;;;;;;;;;23.89;41.23;102587.41;5453940;26;19939;-83
2024/04/21 10:40:18;;;;;;;;;;;;;;;23.96;40.41;102585.47;5394325;26;19932;-83
2024/04/21 10:42:44;;;;;;;;;;;;;;;23.74;41.58;102582.22;5454022;26;19997;-83
2024/04/21 10:45:10;;;;;;;;;;;;;;;23.88;39.83;102589.31;5394635;26;19935;-84
2024/04/21 10:47:35;;;;;;;;;;;;;;;23.70;39.66;102581.78;5424092;26;20281;-83
2024/04/21 10:50:01;;;;;;;;;;;;;;;22.55;41.54;102586.09;5394347;26;19928;-83
2024/04/21 10:52:27;;;;;;;;;;;;;;;20.18;45.48;102581.72;5423941;26;19940;-82
2024/04/21 10:54:53;;;;;;;;;;;;;;;20.21;46.04;102575.03;5394310;26;19928;-83
2024/04/21 10:57:18;;;;;;;;;;;;;;;19.26;46.61;102584.19;5392642;26;20056;-83
2024/04/21 10:59:44;;;;;;;;;;;;;;;19.22;49.31;102578.28;5423248;26;19932;-86
2024/04/21 11:02:09;;;;;;;;;;;;;;;17.88;51.23;102577.09;5452802;26;20262;-87
2024/04/21 11:04:36;;;;;;;;;;;;;;;16.99;54.26;102581.03;5393618;26;19928;-88
2024/04/21 11:07:01;;;;;;;;;;;;;;;16.26;57.86;102585.50;5423578;26;19940;-87
2024/04/21 11:09:26;;;;;;;;;;;;;;;17.18;57.29;102582.50;5423470;26;19932;-87
2024/04/21 11:11:52;;;;;;;;;;;;;;;19.37;54.23;102575.53;5423567;26;20232;-89
2024/04/21 11:14:18;;;;;;;;;;;;;;;20.77;48.49;102572.38;5423406;26;19934;-88
2024/04/21 11:16:50;;;;;;;;;;;;;;;21.55;45.60;102574.09;5453297;26;19939;-87
2024/04/21 11:19:16;;;;;;;;;;;;;;;21.95;44.39;102573.13;5453311;26;20380;-87
2024/04/21 11:21:42;;;;;;;;;;;;;;;22.07;43.54;102575.25;5423579;26;19929;-87
2024/04/21 11:24:07;;;;;;;;;;;;;;;22.13;43.64;102572.53;5453588;26;20362;-86
2024/04/21 11:26:33;;;;;;;;;;;;;;;22.09;42.40;102570.41;5422832;26;19929;-86
2024/04/21 11:28:58;;;;;;;;;;;;;;;22.05;42.62;102572.75;5453113;26;19932;-87
2024/04/21 11:31:24;;;;;;;;;;;;;;;22.01;42.22;102568.72;5423221;26;19960;-88
2024/04/21 11:33:50;;;;;;;;;;;;;;;21.74;44.10;102568.66;5453004;26;20296;-84
2024/04/21 11:36:20;;;;;;;;;;;;;;;22.22;44.16;102572.38;5393222;26;19928;-84
2024/04/21 11:38:54;;;;;;;;;;;;;;;22.12;42.72;102568.13;5423245;26;19933;-83
2024/04/21 11:41:25;;;;;;;;;;;;;;;22.45;42.04;102580.19;5396819;26;19929;-83
2024/04/21 11:43:53;;;;;;;;;;;;;;;21.57;43.70;102572.00;5423586;26;19929;-83
2024/04/21 11:46:19;;;;;;;;;;;;;;;21.97;43.78;102585.81;5453060;26;20431;-84
2024/04/21 11:48:50;;;;;;;;;;;;;;;22.28;41.90;102586.09;5423162;26;19996;-83
2024/04/21 11:51:15;;;;;;;;;;;;;;;22.15;42.06;102580.56;5453564;26;19940;-83
2024/04/21 11:53:41;;;;;;;;;;;;;;;22.06;43.12;102576.31;5452810;26;20244;-83
2024/04/21 11:56:06;;;;;;;;;;;;;;;22.51;43.19;102579.34;5452437;26;19939;-83
2024/04/21 11:58:33;;;;;;;;;;;;;;;22.98;42.61;102581.00;5423936;26;20005;-82
2024/04/21 12:01:00;;;;;;;;;;;;;;;-146.42;100.00;66673.91;5430578;26;19929;-83
2024/04/21 12:03:25;;;;;;;;;;;;;;;22.98;42.61;102581.00;5460839;26;19935;-83
2024/04/21 12:05:51;;;;;;;;;;;;;;;-146.42;100.00;66673.91;5453054;26;19928;-83
2024/04/21 12:08:16;;;;;;;;;;;;;;;-146.42;100.00;66673.91;5393071;26;19944;-83
2024/04/21 12:10:42;;;;;;;;;;;;;;;-146.42;100.00;66673.91;5392819;26;20248;-83
2024/04/21 12:13:07;;;;;;;;;;;;;;;-146.42;100.00;66673.91;5422439;26;19928;-83
2024/04/21 12:15:33;;;;;;;;;;;;;;;-146.42;100.00;66673.91;5422634;26;19929;-83
2024/04/21 12:18:08;;;;;;;;;;;;;;;-146.42;100.00;66673.91;5452126;26;20248;-84
2024/04/21 12:20:36;;;;;;;;;;;;;;;-146.42;100.00;66673.91;5421918;26;20411;-88
2024/04/21 12:23:05;;;;;;;;;;;;;;;-146.42;100.00;66673.91;5392944;26;19929;-89
2024/04/21 12:25:31;;;;;;;;;;;;;;;-146.42;100.00;66673.91;5422711;26;19928;-90
2024/04/21 12:27:56;;;;;;;;;;;;;;;-146.42;100.00;66673.91;5452989;26;20363;-90